Time;durP1;ratioP1;P1;durP2;ratioP2;P2;SDS_P1;SDS_P2;PMS_P1;PMS_P2;Temp;Humidity;BMP_temperature;BMP_pressure;BME280_temperature;BME280_humidity;BME280_pressure;Samples;Min_cycle;Max_cycle;Signal;HPM_P1;HPM_P2
2021/07/30 00:01:59;;;;;;;1999.90;999.90;;;18.80;99.90;;;;;;4899499;29;20234;-79
2021/07/30 00:04:25;;;;;;;1999.90;999.90;;;18.80;99.90;;;;;;4885267;29;20299;-80
2021/07/30 00:06:50;;;;;;;1999.90;999.90;;;18.80;99.90;;;;;;4885065;29;20246;-80
2021/07/30 00:09:17;;;;;;;1999.90;999.90;;;18.80;99.90;;;;;;4885270;29;20178;-80
2021/07/30 00:11:42;;;;;;;1999.90;999.90;;;18.70;99.90;;;;;;4885745;29;20171;-80
2021/07/30 00:14:09;;;;;;;1999.90;999.90;;;18.70;99.90;;;;;;4885329;29;20482;-80
2021/07/30 00:16:35;;;;;;;1999.90;999.90;;;18.60;99.90;;;;;;4884824;29;20258;-80
2021/07/30 00:19:01;;;;;;;1999.90;999.90;;;18.60;99.90;;;;;;4884980;29;20761;-80
2021/07/30 00:21:27;;;;;;;1999.90;999.90;;;18.60;99.90;;;;;;4885981;29;20206;-80
2021/07/30 00:23:53;;;;;;;1999.90;999.90;;;18.60;99.90;;;;;;4899849;29;20427;-80
2021/07/30 00:26:20;;;;;;;1999.90;999.90;;;18.60;99.90;;;;;;4899092;29;20463;-80
2021/07/30 00:28:46;;;;;;;1999.90;999.90;;;18.60;99.90;;;;;;4884786;29;20183;-80
2021/07/30 00:31:12;;;;;;;1999.90;999.90;;;18.60;99.90;;;;;;4885236;29;20415;-79
2021/07/30 00:33:37;;;;;;;1999.90;999.90;;;18.60;99.90;;;;;;4884948;29;20178;-80
2021/07/30 00:36:03;;;;;;;1999.90;999.90;;;18.50;99.90;;;;;;4884833;29;20540;-79
2021/07/30 00:38:29;;;;;;;1999.90;999.90;;;18.60;99.90;;;;;;4884791;29;20207;-80
2021/07/30 00:40:55;;;;;;;1999.90;999.90;;;18.50;99.90;;;;;;4883870;29;20419;-80
2021/07/30 00:43:20;;;;;;;1999.90;999.90;;;18.60;99.90;;;;;;4884934;29;20832;-80
2021/07/30 00:45:47;;;;;;;1999.90;999.90;;;18.60;99.90;;;;;;4884850;29;20631;-80
2021/07/30 00:48:15;;;;;;;1999.90;999.90;;;18.60;99.90;;;;;;4884635;29;20198;-80
2021/07/30 00:50:42;;;;;;;1999.90;999.90;;;18.60;99.90;;;;;;4884453;29;20407;-80
2021/07/30 00:53:08;;;;;;;1999.90;999.90;;;18.70;99.90;;;;;;4883960;29;20490;-80
2021/07/30 00:55:34;;;;;;;1999.90;999.90;;;18.60;99.90;;;;;;4882590;29;20943;-80
2021/07/30 00:58:01;;;;;;;1999.90;999.90;;;18.60;99.90;;;;;;4883040;29;20205;-80
2021/07/30 01:00:28;;;;;;;1999.90;999.90;;;18.60;99.90;;;;;;4884193;29;20407;-80
2021/07/30 01:02:54;;;;;;;1999.90;999.90;;;18.70;99.90;;;;;;4884007;29;20439;-80
2021/07/30 01:05:20;;;;;;;1999.90;999.90;;;18.70;99.90;;;;;;4885065;29;20412;-79
2021/07/30 01:07:46;;;;;;;1999.90;999.90;;;18.70;99.90;;;;;;4883833;29;20872;-80
2021/07/30 01:10:12;;;;;;;1999.90;999.90;;;18.70;99.90;;;;;;4885022;29;20403;-80
2021/07/30 01:12:38;;;;;;;1999.90;999.90;;;18.60;99.90;;;;;;4884055;29;20167;-80
2021/07/30 01:15:05;;;;;;;1999.90;999.90;;;18.60;99.90;;;;;;4884895;29;20175;-80
2021/07/30 01:17:30;;;;;;;1999.90;999.90;;;18.50;99.90;;;;;;4884562;29;20262;-80
2021/07/30 01:19:56;;;;;;;1999.90;999.90;;;18.60;99.90;;;;;;4885048;29;20439;-80
2021/07/30 01:22:26;;;;;;;1999.90;999.90;;;18.50;99.90;;;;;;4885365;29;20178;-80
2021/07/30 01:24:53;;;;;;;1999.90;999.90;;;18.50;99.90;;;;;;4884652;29;20162;-80
2021/07/30 01:27:20;;;;;;;1999.90;999.90;;;18.50;99.90;;;;;;4884170;29;20474;-80
2021/07/30 01:29:47;;;;;;;1999.90;999.90;;;18.50;99.90;;;;;;4884785;29;20509;-80
2021/07/30 01:32:14;;;;;;;1999.90;999.90;;;18.40;99.90;;;;;;4885215;29;20866;-80
2021/07/30 01:34:39;;;;;;;1999.90;999.90;;;18.30;99.90;;;;;;4884252;29;20497;-80
2021/07/30 01:37:05;;;;;;;1999.90;999.90;;;18.20;99.90;;;;;;4884308;29;20486;-80
2021/07/30 01:39:31;;;;;;;1999.90;999.90;;;18.20;99.90;;;;;;4884329;29;20158;-80
2021/07/30 01:41:57;;;;;;;1999.90;999.90;;;18.20;99.90;;;;;;4884559;29;20923;-80
2021/07/30 01:44:23;;;;;;;1999.90;999.90;;;18.30;99.90;;;;;;4884638;29;20202;-80
2021/07/30 01:46:48;;;;;;;1999.90;999.90;;;18.20;99.90;;;;;;4884519;29;20202;-80
2021/07/30 01:49:14;;;;;;;1999.90;999.90;;;18.20;99.90;;;;;;4884305;29;20253;-80
2021/07/30 01:51:40;;;;;;;1999.90;999.90;;;18.30;99.90;;;;;;4884138;29;20781;-80
2021/07/30 01:54:06;;;;;;;1999.90;999.90;;;18.30;99.90;;;;;;4884404;29;20651;-80
2021/07/30 01:56:32;;;;;;;1999.90;999.90;;;18.30;99.90;;;;;;4883904;29;20244;-80
2021/07/30 01:58:58;;;;;;;1999.90;999.90;;;18.40;99.90;;;;;;4883793;29;20419;-80
2021/07/30 02:01:24;;;;;;;1999.90;999.90;;;18.40;99.90;;;;;;4883727;29;20449;-80
2021/07/30 02:03:50;;;;;;;1999.90;999.90;;;18.40;99.90;;;;;;4897911;29;20666;-80
2021/07/30 02:06:16;;;;;;;1999.90;999.90;;;18.40;99.90;;;;;;4883777;29;20430;-80
2021/07/30 02:08:43;;;;;;;1999.90;999.90;;;18.40;99.90;;;;;;4883105;29;20554;-80
2021/07/30 02:11:12;;;;;;;1999.90;999.90;;;18.40;99.90;;;;;;4882302;29;20178;-80
2021/07/30 02:16:24;;;;;;;1999.90;999.90;;;18.40;99.90;;;;;;4884181;29;20473;-80
2021/07/30 02:18:51;;;;;;;1999.90;999.90;;;18.30;99.90;;;;;;4898034;29;20478;-80
2021/07/30 02:21:17;;;;;;;1999.90;999.90;;;18.30;99.90;;;;;;4884801;29;20462;-80
2021/07/30 02:23:46;;;;;;;1999.90;999.90;;;18.30;99.90;;;;;;4883181;29;20776;-80
2021/07/30 02:26:12;;;;;;;1999.90;999.90;;;18.30;99.90;;;;;;4887229;29;20831;-80
2021/07/30 02:28:38;;;;;;;1999.90;999.90;;;18.30;99.90;;;;;;4888406;29;20414;-80
2021/07/30 02:31:03;;;;;;;1999.90;999.90;;;18.30;99.90;;;;;;4887155;29;21022;-80
2021/07/30 02:33:29;;;;;;;1999.90;999.90;;;18.20;99.90;;;;;;4888218;29;20171;-80
2021/07/30 02:35:55;;;;;;;1999.90;999.90;;;18.20;99.90;;;;;;4887576;29;20228;-80
2021/07/30 02:38:21;;;;;;;1999.90;999.90;;;18.20;99.90;;;;;;4887358;29;20233;-80
2021/07/30 02:40:49;;;;;;;1999.90;999.90;;;18.10;99.90;;;;;;4885878;29;20194;-80
2021/07/30 02:43:15;;;;;;;1999.90;999.90;;;18.00;99.90;;;;;;4886487;29;20214;-79
2021/07/30 02:45:41;;;;;;;1999.90;999.90;;;18.00;99.90;;;;;;4885569;29;20990;-79
2021/07/30 02:48:06;;;;;;;1999.90;999.90;;;18.00;99.90;;;;;;4886757;29;20266;-80
2021/07/30 02:50:32;;;;;;;1999.90;999.90;;;17.90;99.90;;;;;;4886857;29;20170;-78
2021/07/30 02:52:58;;;;;;;1999.90;999.90;;;17.90;99.90;;;;;;4887011;29;20179;-79
2021/07/30 02:55:23;;;;;;;1999.90;999.90;;;17.90;99.90;;;;;;4886999;29;20178;-80
2021/07/30 02:57:49;;;;;;;1999.90;999.90;;;17.90;99.90;;;;;;4887540;29;20222;-80
2021/07/30 03:00:15;;;;;;;1999.90;999.90;;;17.80;99.90;;;;;;4886855;29;20202;-79
2021/07/30 03:02:41;;;;;;;1999.90;999.90;;;17.80;99.90;;;;;;4887292;29;20178;-79
2021/07/30 03:05:07;;;;;;;1999.90;999.90;;;17.80;99.90;;;;;;4886978;29;20415;-79
2021/07/30 03:07:32;;;;;;;1999.90;999.90;;;17.80;99.90;;;;;;4886615;29;20193;-80
2021/07/30 03:09:58;;;;;;;1999.90;999.90;;;17.70;99.90;;;;;;4886687;29;20400;-79
2021/07/30 03:12:24;;;;;;;1999.90;999.90;;;17.70;99.90;;;;;;4886914;29;20167;-78
2021/07/30 03:14:50;;;;;;;1999.90;999.90;;;17.70;99.90;;;;;;4900590;29;20175;-80
2021/07/30 03:17:15;;;;;;;1999.90;999.90;;;17.70;99.90;;;;;;4886260;29;20198;-80
2021/07/30 03:19:41;;;;;;;1999.90;999.90;;;17.60;99.90;;;;;;4886197;29;20167;-80
2021/07/30 03:22:07;;;;;;;1999.90;999.90;;;17.50;99.90;;;;;;4885422;29;20181;-79
2021/07/30 03:24:32;;;;;;;1999.90;999.90;;;17.50;99.90;;;;;;4885020;29;20179;-80
2021/07/30 03:26:58;;;;;;;1999.90;999.90;;;17.50;99.90;;;;;;4953825;23;20229;-81
2021/07/30 03:29:24;;;;;;;1999.90;999.90;;;17.40;99.90;;;;;;4891323;29;20206;-81
2021/07/30 03:31:50;;;;;;;1999.90;999.90;;;17.40;99.90;;;;;;4891087;29;20678;-81
2021/07/30 03:34:16;;;;;;;1999.90;999.90;;;17.50;99.90;;;;;;4891151;29;20698;-81
2021/07/30 03:36:42;;;;;;;1999.90;999.90;;;17.50;99.90;;;;;;4891668;29;20202;-81
2021/07/30 03:39:09;;;;;;;1999.90;999.90;;;17.40;99.90;;;;;;4892843;29;20408;-81
2021/07/30 03:41:35;;;;;;;1999.90;999.90;;;17.40;99.90;;;;;;4892760;29;20423;-81
2021/07/30 03:44:01;;;;;;;1999.90;999.90;;;17.40;99.90;;;;;;4893009;29;20419;-81
2021/07/30 03:46:27;;;;;;;1999.90;999.90;;;17.30;99.90;;;;;;4892145;29;20427;-81
2021/07/30 03:48:52;;;;;;;1999.90;999.90;;;17.20;99.90;;;;;;4892428;29;20647;-81
2021/07/30 03:51:18;;;;;;;1999.90;999.90;;;17.20;99.90;;;;;;4892681;29;20231;-81
2021/07/30 03:53:44;;;;;;;1999.90;999.90;;;17.20;99.90;;;;;;4892520;29;20611;-81
2021/07/30 03:56:13;;;;;;;1999.90;999.90;;;17.10;99.90;;;;;;4891479;29;20292;-81
2021/07/30 03:58:43;;;;;;;1999.90;999.90;;;17.10;99.90;;;;;;4892223;29;20673;-81
2021/07/30 04:01:11;;;;;;;1999.90;999.90;;;17.00;99.90;;;;;;4892478;29;20412;-81
2021/07/30 04:03:40;;;;;;;1999.90;999.90;;;17.00;99.90;;;;;;4891729;29;20406;-81
2021/07/30 04:06:06;;;;;;;1999.90;999.90;;;17.10;99.90;;;;;;4891277;29;20423;-81
2021/07/30 04:08:36;;;;;;;1999.90;999.90;;;17.00;99.90;;;;;;4891715;29;20418;-80
2021/07/30 04:11:03;;;;;;;1999.90;999.90;;;16.90;99.90;;;;;;4894268;29;20245;-81
2021/07/30 04:13:30;;;;;;;1999.90;999.90;;;16.90;99.90;;;;;;4893576;29;20412;-81
2021/07/30 04:16:03;;;;;;;1999.90;999.90;;;16.90;99.90;;;;;;4894303;29;20927;-81
2021/07/30 04:18:29;;;;;;;1999.90;999.90;;;16.90;99.90;;;;;;4894333;29;20411;-81
2021/07/30 04:20:55;;;;;;;1999.90;999.90;;;16.90;99.90;;;;;;4892090;29;20404;-81
2021/07/30 04:23:21;;;;;;;1999.90;999.90;;;17.00;99.90;;;;;;4891805;29;20255;-81
2021/07/30 04:25:46;;;;;;;1999.90;999.90;;;16.90;99.90;;;;;;4893123;29;20431;-81
2021/07/30 04:28:12;;;;;;;1999.90;999.90;;;17.00;99.90;;;;;;4891456;29;20190;-81
2021/07/30 04:30:38;;;;;;;1999.90;999.90;;;17.00;99.90;;;;;;4894071;29;20174;-81
2021/07/30 04:33:03;;;;;;;1999.90;999.90;;;17.00;99.90;;;;;;4891776;29;20186;-81
2021/07/30 04:35:29;;;;;;;1999.90;999.90;;;17.00;99.90;;;;;;4891293;29;20170;-81
2021/07/30 04:37:56;;;;;;;1999.90;999.90;;;17.00;99.90;;;;;;4905798;29;20195;-81
2021/07/30 04:40:22;;;;;;;1999.90;999.90;;;17.00;99.90;;;;;;4891550;29;20198;-81
2021/07/30 04:42:48;;;;;;;1999.90;999.90;;;17.00;99.90;;;;;;4906225;29;20462;-81
2021/07/30 04:45:14;;;;;;;1999.90;999.90;;;17.00;99.90;;;;;;4890978;29;20439;-81
2021/07/30 04:47:39;;;;;;;1999.90;999.90;;;17.00;99.90;;;;;;4890690;29;20202;-81
2021/07/30 04:50:05;;;;;;;1999.90;999.90;;;17.00;99.90;;;;;;4891550;29;20183;-81
2021/07/30 04:52:31;;;;;;;1999.90;999.90;;;17.00;99.90;;;;;;4891321;29;20643;-81
2021/07/30 04:54:57;;;;;;;1999.90;999.90;;;17.00;99.90;;;;;;4890453;29;20497;-81
2021/07/30 04:57:22;;;;;;;1999.90;999.90;;;17.00;99.90;;;;;;4891287;29;20210;-81
2021/07/30 04:59:48;;;;;;;1999.90;999.90;;;17.00;99.90;;;;;;4891398;29;20201;-81
2021/07/30 05:02:13;;;;;;;1999.90;999.90;;;17.10;99.90;;;;;;4889450;29;20175;-81
2021/07/30 05:04:39;;;;;;;1999.90;999.90;;;17.10;99.90;;;;;;4891430;29;20678;-81
2021/07/30 05:07:05;;;;;;;1999.90;999.90;;;17.20;99.90;;;;;;4891206;29;20201;-81
2021/07/30 05:09:31;;;;;;;1999.90;999.90;;;17.20;99.90;;;;;;4891125;29;20206;-81
2021/07/30 05:11:57;;;;;;;1999.90;999.90;;;17.20;99.90;;;;;;4890805;29;20915;-81
2021/07/30 05:14:22;;;;;;;1999.90;999.90;;;17.30;99.90;;;;;;4891044;29;20418;-81
2021/07/30 05:16:48;;;;;;;1999.90;999.90;;;17.30;99.90;;;;;;4890504;29;20212;-81
2021/07/30 05:19:14;;;;;;;1999.90;999.90;;;17.40;99.90;;;;;;4890820;29;20175;-81
2021/07/30 05:21:39;;;;;;;1999.90;999.90;;;17.40;99.90;;;;;;4890558;29;20175;-81
2021/07/30 05:24:05;;;;;;;1999.90;999.90;;;17.40;99.90;;;;;;4890454;29;20579;-81
2021/07/30 05:26:31;;;;;;;1999.90;999.90;;;17.30;99.90;;;;;;4890116;29;20195;-81
2021/07/30 05:28:56;;;;;;;1999.90;999.90;;;17.30;99.90;;;;;;4890465;29;20171;-81
2021/07/30 05:31:23;;;;;;;1999.90;999.90;;;17.30;99.90;;;;;;4892235;29;20301;-81
2021/07/30 05:33:49;;;;;;;1999.90;999.90;;;17.30;99.90;;;;;;4888793;29;20185;-81
2021/07/30 05:36:20;;;;;;;1999.90;999.90;;;17.20;99.90;;;;;;4903718;29;22854;-81
2021/07/30 05:38:49;;;;;;;1999.90;999.90;;;17.30;99.90;;;;;;4889430;29;20515;-81
2021/07/30 05:41:15;;;;;;;1999.90;999.90;;;17.30;99.90;;;;;;4888482;29;20433;-81
2021/07/30 05:43:42;;;;;;;1999.90;999.90;;;17.40;99.90;;;;;;4890160;29;20411;-81
2021/07/30 05:46:09;;;;;;;1999.90;999.90;;;17.40;99.90;;;;;;4889362;29;20440;-81
2021/07/30 05:48:35;;;;;;;1999.90;999.90;;;17.40;99.90;;;;;;4890482;29;20780;-81
2021/07/30 05:51:00;;;;;;;1999.90;999.90;;;17.30;99.90;;;;;;4889613;29;20487;-81
2021/07/30 05:53:26;;;;;;;1999.90;999.90;;;17.40;99.90;;;;;;4889515;29;20439;-81
2021/07/30 05:55:52;;;;;;;1999.90;999.90;;;17.40;99.90;;;;;;4892063;29;20194;-81
2021/07/30 05:58:18;;;;;;;1999.90;999.90;;;17.40;99.90;;;;;;4889911;29;20198;-81
2021/07/30 06:00:43;;;;;;;1999.90;999.90;;;17.50;99.90;;;;;;4893035;29;20249;-81
2021/07/30 06:03:09;;;;;;;1999.90;999.90;;;17.50;99.90;;;;;;4889923;29;20646;-81
2021/07/30 06:05:35;;;;;;;1999.90;999.90;;;17.50;99.90;;;;;;4892637;29;20174;-81
2021/07/30 06:08:05;;;;;;;1999.90;999.90;;;17.60;99.90;;;;;;4890500;29;20202;-81
2021/07/30 06:10:31;;;;;;;1999.90;999.90;;;17.60;99.90;;;;;;4889536;29;20178;-81
2021/07/30 06:12:57;;;;;;;1999.90;999.90;;;17.70;99.90;;;;;;4892703;29;20425;-80
2021/07/30 06:15:23;;;;;;;1999.90;999.90;;;17.70;99.90;;;;;;4891263;29;20455;-80
2021/07/30 06:17:50;;;;;;;1999.90;999.90;;;17.80;99.90;;;;;;4890307;29;20195;-80
2021/07/30 06:20:16;;;;;;;1999.90;999.90;;;17.80;99.90;;;;;;4890254;29;20428;-80
2021/07/30 06:22:41;;;;;;;1999.90;999.90;;;17.80;99.90;;;;;;4889808;29;20407;-81
2021/07/30 06:25:08;;;;;;;1999.90;999.90;;;17.90;99.90;;;;;;4887205;29;20673;-79
2021/07/30 06:27:34;;;;;;;1999.90;999.90;;;17.80;99.90;;;;;;4888813;29;20218;-81
2021/07/30 06:30:01;;;;;;;1999.90;999.90;;;17.80;99.90;;;;;;4889751;29;20411;-80
2021/07/30 06:32:26;;;;;;;1999.90;999.90;;;17.90;99.90;;;;;;4890515;29;20384;-81
2021/07/30 06:34:53;;;;;;;1999.90;999.90;;;18.00;99.90;;;;;;4890821;29;20483;-80
2021/07/30 06:37:19;;;;;;;1999.90;999.90;;;18.00;99.90;;;;;;4889123;29;20199;-80
2021/07/30 06:39:44;;;;;;;1999.90;999.90;;;18.10;99.90;;;;;;4889024;29;20447;-80
2021/07/30 06:42:10;;;;;;;1999.90;999.90;;;18.10;99.90;;;;;;4887275;29;20411;-80
2021/07/30 06:44:36;;;;;;;1999.90;999.90;;;18.10;99.90;;;;;;4887315;29;20177;-80
2021/07/30 06:47:04;;;;;;;1999.90;999.90;;;18.10;99.90;;;;;;4889860;29;20191;-80
2021/07/30 06:49:34;;;;;;;1999.90;999.90;;;18.20;99.90;;;;;;4890155;29;20182;-81
2021/07/30 06:52:00;;;;;;;1999.90;999.90;;;18.20;99.90;;;;;;4889923;29;20733;-80
2021/07/30 06:54:33;;;;;;;1999.90;999.90;;;18.30;99.90;;;;;;4888269;29;20423;-80
2021/07/30 06:57:01;;;;;;;1999.90;999.90;;;18.30;99.90;;;;;;4888010;29;20281;-80
2021/07/30 06:59:27;;;;;;;1999.90;999.90;;;18.40;99.90;;;;;;4889088;29;20428;-80
2021/07/30 07:01:53;;;;;;;1999.90;999.90;;;18.50;99.90;;;;;;4887148;29;20849;-81
2021/07/30 07:04:19;;;;;;;1999.90;999.90;;;18.50;99.90;;;;;;4889288;29;20503;-80
2021/07/30 07:06:47;;;;;;;1999.90;999.90;;;18.50;99.90;;;;;;4884782;29;20466;-79
2021/07/30 07:09:16;;;;;;;1999.90;999.90;;;18.50;99.90;;;;;;4884045;29;20174;-79
2021/07/30 07:11:42;;;;;;;1999.90;999.90;;;18.60;99.90;;;;;;4891653;29;20407;-80
2021/07/30 07:14:08;;;;;;;1999.90;999.90;;;18.70;99.90;;;;;;4895431;29;20757;-80
2021/07/30 07:16:33;;;;;;;1999.90;999.90;;;18.70;99.90;;;;;;4894838;29;20202;-80
2021/07/30 07:18:59;;;;;;;1999.90;999.90;;;18.80;99.90;;;;;;4895142;29;20219;-80
2021/07/30 07:21:25;;;;;;;1999.90;999.90;;;18.90;99.90;;;;;;4894695;29;20170;-80
2021/07/30 07:23:51;;;;;;;1999.90;999.90;;;19.00;99.90;;;;;;4895511;29;20179;-80
2021/07/30 07:26:20;;;;;;;1999.90;999.90;;;19.10;99.90;;;;;;4894825;29;20494;-80
2021/07/30 07:28:46;;;;;;;1999.90;999.90;;;19.20;99.90;;;;;;4894969;29;20407;-80
2021/07/30 07:31:11;;;;;;;1999.90;999.90;;;19.30;99.90;;;;;;4894002;29;20407;-80
2021/07/30 07:33:37;;;;;;;1999.90;999.90;;;19.30;99.90;;;;;;4908517;29;20422;-80
2021/07/30 07:36:03;;;;;;;1999.90;999.90;;;19.40;99.90;;;;;;4895232;29;20316;-80
2021/07/30 07:38:30;;;;;;;1999.90;999.90;;;19.40;99.90;;;;;;4894204;29;20174;-80
2021/07/30 07:40:55;;;;;;;1999.90;999.90;;;19.50;99.90;;;;;;4893040;29;20408;-80
2021/07/30 07:43:21;;;;;;;1999.90;999.90;;;19.60;99.90;;;;;;4893462;29;20407;-80
2021/07/30 07:45:47;;;;;;;1999.90;999.90;;;19.70;99.90;;;;;;4893613;29;20741;-80
2021/07/30 07:48:13;;;;;;;1999.90;999.90;;;19.70;99.90;;;;;;4894409;29;20178;-80
2021/07/30 07:50:38;;;;;;;1999.90;999.90;;;19.80;99.90;;;;;;4896173;29;20182;-81
2021/07/30 07:53:14;;;;;;;1999.90;999.90;;;19.90;99.90;;;;;;4894816;29;20178;-81
2021/07/30 07:55:40;;;;;;;1999.90;999.90;;;19.90;99.90;;;;;;4892771;29;20184;-81
2021/07/30 07:58:05;;;;;;;1999.90;999.90;;;20.00;99.90;;;;;;4896268;29;20495;-80
2021/07/30 08:00:31;;;;;;;1999.90;999.90;;;20.00;99.90;;;;;;4909295;29;20179;-80
2021/07/30 08:02:57;;;;;;;1999.90;999.90;;;20.10;99.90;;;;;;4894482;29;20170;-80
2021/07/30 08:05:23;;;;;;;1999.90;999.90;;;20.20;99.90;;;;;;4892783;29;20203;-80
2021/07/30 08:07:48;;;;;;;1999.90;999.90;;;20.40;99.90;;;;;;4893234;29;20187;-80
2021/07/30 08:10:14;;;;;;;1999.90;999.90;;;20.40;99.90;;;;;;4907423;29;20197;-80
2021/07/30 08:12:39;;;;;;;1999.90;999.90;;;20.50;99.90;;;;;;4892646;29;20640;-81
2021/07/30 08:15:06;;;;;;;1999.90;999.90;;;20.50;99.90;;;;;;4891013;29;20179;-80
2021/07/30 08:17:36;;;;;;;1999.90;999.90;;;20.60;99.90;;;;;;4893286;29;20211;-80
2021/07/30 08:20:04;;;;;;;1999.90;999.90;;;20.70;99.90;;;;;;4895798;29;20447;-81
2021/07/30 08:22:29;;;;;;;1999.90;999.90;;;20.80;99.90;;;;;;4893550;29;20478;-81
2021/07/30 08:24:55;;;;;;;1999.90;999.90;;;20.90;99.90;;;;;;4891659;29;20453;-81
2021/07/30 08:27:21;;;;;;;1999.90;999.90;;;21.00;99.90;;;;;;4891167;29;20215;-81
2021/07/30 08:29:47;;;;;;;1999.90;999.90;;;21.00;99.90;;;;;;4893163;29;20208;-81
2021/07/30 08:32:12;;;;;;;1999.90;999.90;;;21.10;98.90;;;;;;4892676;29;20173;-81
2021/07/30 08:34:39;;;;;;;1999.90;999.90;;;21.10;96.70;;;;;;4891796;29;20175;-81
2021/07/30 08:37:06;;;;;;;1999.90;999.90;;;21.30;99.00;;;;;;4892531;29;20226;-80
2021/07/30 08:39:31;;;;;;;1999.90;999.90;;;21.30;98.00;;;;;;4891283;29;20450;-81
2021/07/30 08:41:59;;;;;;;1999.90;999.90;;;21.40;94.70;;;;;;4894056;29;20397;-81
2021/07/30 08:44:25;;;;;;;1999.90;999.90;;;21.50;95.60;;;;;;4890157;29;20165;-81
2021/07/30 08:46:52;;;;;;;1999.90;999.90;;;21.40;93.50;;;;;;4895502;29;20435;-81
2021/07/30 08:49:18;;;;;;;1999.90;999.90;;;21.50;93.80;;;;;;4895025;29;20505;-81
2021/07/30 08:51:46;;;;;;;1999.90;999.90;;;21.60;96.00;;;;;;4895080;29;20413;-81
2021/07/30 08:54:13;;;;;;;1999.90;999.90;;;21.70;91.40;;;;;;4897073;29;20825;-81
2021/07/30 08:56:39;;;;;;;1999.90;999.90;;;21.70;92.30;;;;;;4895589;29;20454;-81
2021/07/30 08:59:07;;;;;;;1999.90;999.90;;;21.70;91.40;;;;;;4894771;29;20429;-81
2021/07/30 09:01:33;;;;;;;1999.90;999.90;;;21.80;91.70;;;;;;4894806;29;20171;-81
2021/07/30 09:03:58;;;;;;;1999.90;999.90;;;21.90;91.90;;;;;;4896643;29;20440;-81
2021/07/30 09:06:24;;;;;;;1999.90;999.90;;;22.00;92.60;;;;;;4893094;29;20193;-81
2021/07/30 09:09:06;;;;;;;1999.90;999.90;;;22.20;91.80;;;;;;4890031;29;20658;-81
2021/07/30 09:11:38;;;;;;;1999.90;999.90;;;22.30;89.80;;;;;;4892499;29;20391;-81
2021/07/30 09:14:05;;;;;;;1999.90;999.90;;;22.30;89.40;;;;;;4892781;29;20432;-81
2021/07/30 09:16:49;;;;;;;1999.90;999.90;;;22.40;87.90;;;;;;4892037;29;20451;-81
2021/07/30 09:19:15;;;;;;;1999.90;999.90;;;22.40;91.70;;;;;;4895887;29;20729;-81
2021/07/30 09:21:41;;;;;;;1999.90;999.90;;;22.50;91.10;;;;;;4895550;29;20415;-81
2021/07/30 09:24:09;;;;;;;1999.90;999.90;;;22.50;87.00;;;;;;4895019;29;20412;-81
2021/07/30 09:26:45;;;;;;;1999.90;999.90;;;22.80;83.80;;;;;;4957844;23;20209;-81
2021/07/30 09:29:16;;;;;;;1999.90;999.90;;;23.10;88.30;;;;;;4863718;29;20420;-81
2021/07/30 09:31:43;;;;;;;1999.90;999.90;;;23.30;73.30;;;;;;4864334;29;20396;-81
2021/07/30 09:34:10;;;;;;;1999.90;999.90;;;23.40;74.40;;;;;;4878196;29;20416;-81
2021/07/30 09:36:52;;;;;;;1999.90;999.90;;;23.20;74.90;;;;;;4864681;29;20456;-81
2021/07/30 09:39:24;;;;;;;1999.90;999.90;;;23.20;80.00;;;;;;4863997;29;20431;-81
2021/07/30 09:42:01;;;;;;;1999.90;999.90;;;23.30;75.60;;;;;;4862359;29;20428;-81
2021/07/30 09:44:52;;;;;;;1999.90;999.90;;;23.40;77.90;;;;;;4878199;29;20420;-81
2021/07/30 09:47:19;;;;;;;1999.90;999.90;;;23.50;74.50;;;;;;4878781;29;20952;-80
2021/07/30 09:49:56;;;;;;;1999.90;999.90;;;23.60;67.00;;;;;;4878628;29;20434;-81
2021/07/30 09:52:23;;;;;;;1999.90;999.90;;;23.50;66.80;;;;;;4878364;29;20416;-81
2021/07/30 09:54:55;;;;;;;1999.90;999.90;;;23.50;63.60;;;;;;4864082;29;20444;-81
2021/07/30 09:57:23;;;;;;;1999.90;999.90;;;23.60;75.70;;;;;;4877987;29;20460;-81
2021/07/30 09:59:49;;;;;;;1999.90;999.90;;;23.70;63.70;;;;;;4865138;29;20418;-80
2021/07/30 10:03:05;;;;;;;1999.90;999.90;;;23.80;65.20;;;;;;4862486;29;20409;-79
2021/07/30 10:05:32;;;;;;;1999.90;999.90;;;23.90;66.70;;;;;;4858997;29;20777;-79
2021/07/30 10:08:01;;;;;;;1999.90;999.90;;;24.00;62.90;;;;;;4861427;29;20404;-79
2021/07/30 10:10:29;;;;;;;1999.90;999.90;;;23.90;57.50;;;;;;4861634;29;20496;-79
2021/07/30 10:12:58;;;;;;;1999.90;999.90;;;24.00;67.10;;;;;;4862434;29;20536;-79
2021/07/30 10:15:24;;;;;;;1999.90;999.90;;;24.20;62.40;;;;;;4861375;29;20499;-79
2021/07/30 10:17:58;;;;;;;1999.90;999.90;;;24.50;62.20;;;;;;4860911;29;20539;-79
2021/07/30 10:20:25;;;;;;;1999.90;999.90;;;24.60;50.90;;;;;;4875621;29;20580;-79
2021/07/30 10:23:11;;;;;;;1999.90;999.90;;;24.50;49.90;;;;;;4861544;29;20777;-78
2021/07/30 10:25:52;;;;;;;1999.90;999.90;;;24.80;50.70;;;;;;4860157;29;20423;-79
2021/07/30 10:28:21;;;;;;;1999.90;999.90;;;24.80;44.90;;;;;;4861237;29;20424;-79
2021/07/30 10:30:57;;;;;;;1999.90;999.90;;;24.80;43.10;;;;;;4861936;29;20547;-79
2021/07/30 10:33:36;;;;;;;1999.90;999.90;;;24.90;50.90;;;;;;4861844;29;20392;-79
2021/07/30 10:36:13;;;;;;;1999.90;999.90;;;25.20;51.90;;;;;;4861867;29;21053;-80
2021/07/30 10:38:40;;;;;;;1999.90;999.90;;;25.10;32.10;;;;;;4862012;29;20427;-79
2021/07/30 10:41:09;;;;;;;1999.90;999.90;;;25.00;29.70;;;;;;4861681;29;20504;-79
2021/07/30 10:43:50;;;;;;;1999.90;999.90;;;25.10;35.70;;;;;;4876124;29;20415;-78
2021/07/30 10:46:17;;;;;;;1999.90;999.90;;;25.30;31.50;;;;;;4864569;29;20964;-79
2021/07/30 10:48:43;;;;;;;1999.90;999.90;;;25.70;28.60;;;;;;4865674;29;20489;-79
2021/07/30 10:51:27;;;;;;;1999.90;999.90;;;25.80;26.80;;;;;;4864253;29;20547;-78
2021/07/30 10:53:55;;;;;;;1999.90;999.90;;;25.60;22.20;;;;;;4866134;29;20390;-79
2021/07/30 10:56:21;;;;;;;1999.90;999.90;;;25.70;21.50;;;;;;4880196;29;20782;-79
2021/07/30 10:58:49;;;;;;;1999.90;999.90;;;25.90;24.00;;;;;;4865401;29;20425;-79
2021/07/30 11:01:27;;;;;;;1999.90;999.90;;;26.20;18.90;;;;;;4879602;29;20318;-79
2021/07/30 11:03:58;;;;;;;1999.90;999.90;;;26.30;19.10;;;;;;4879867;29;20415;-79
2021/07/30 11:06:32;;;;;;;1999.90;999.90;;;26.10;13.90;;;;;;4865668;29;20431;-79
2021/07/30 11:11:46;;;;;;;1999.90;999.90;;;25.80;13.30;;;;;;4866194;29;20442;-81
2021/07/30 11:14:28;;;;;;;1999.90;999.90;;;25.70;14.60;;;;;;4880632;29;20416;-80
2021/07/30 11:17:01;;;;;;;1999.90;999.90;;;25.60;14.80;;;;;;4881069;29;20618;-81
2021/07/30 11:19:33;;;;;;;1999.90;999.90;;;25.60;16.00;;;;;;4865561;29;20998;-80
2021/07/30 11:22:06;;;;;;;1999.90;999.90;;;25.90;16.20;;;;;;4865513;29;20506;-81
2021/07/30 11:24:46;;;;;;;1999.90;999.90;;;26.10;14.50;;;;;;4867654;29;20400;-81
2021/07/30 11:27:14;;;;;;;1999.90;999.90;;;25.90;12.00;;;;;;4866011;29;20461;-80
2021/07/30 11:29:44;;;;;;;1999.90;999.90;;;26.00;11.60;;;;;;4866411;29;20407;-81
2021/07/30 11:32:14;;;;;;;1999.90;999.90;;;26.20;12.30;;;;;;4866841;29;20439;-80
2021/07/30 11:34:41;;;;;;;1999.90;999.90;;;26.30;8.00;;;;;;4866173;29;20420;-80
2021/07/30 11:37:12;;;;;;;1999.90;999.90;;;26.20;9.20;;;;;;4865515;29;20970;-80
2021/07/30 11:39:43;;;;;;;1999.90;999.90;;;26.30;10.30;;;;;;4866117;29;20445;-80
2021/07/30 11:42:10;;;;;;;1999.90;999.90;;;26.60;10.00;;;;;;4864469;29;20503;-80
2021/07/30 11:44:47;;;;;;;1999.90;999.90;;;26.90;5.80;;;;;;4864985;29;20416;-80
2021/07/30 11:47:13;;;;;;;1999.90;999.90;;;27.00;6.80;;;;;;4865836;29;20519;-82
2021/07/30 11:49:41;;;;;;;1999.90;999.90;;;27.20;7.00;;;;;;4866201;29;20476;-80
2021/07/30 11:52:10;;;;;;;1999.90;999.90;;;27.20;4.50;;;;;;4864707;29;20420;-81
2021/07/30 11:54:36;;;;;;;1999.90;999.90;;;27.20;4.70;;;;;;4866015;29;20419;-80
2021/07/30 11:57:02;;;;;;;1999.90;999.90;;;27.30;4.20;;;;;;4864841;29;20855;-80
2021/07/30 11:59:43;;;;;;;1999.90;999.90;;;27.40;3.30;;;;;;4865856;29;20419;-80
2021/07/30 12:02:10;;;;;;;1999.90;999.90;;;27.40;1.00;;;;;;4865618;29;20392;-81
2021/07/30 12:04:35;;;;;;;1999.90;999.90;;;27.40;1.00;;;;;;4864408;29;20418;-80
2021/07/30 12:07:15;;;;;;;1999.90;999.90;;;27.20;1.00;;;;;;4865395;29;20792;-80